createdAt,value
2018-04-28T00:02:19.078Z,81.79
2018-04-28T00:04:45.406Z,80.97
2018-04-28T00:07:11.744Z,81.98
2018-04-28T00:09:38.198Z,83.10
2018-04-28T00:12:04.615Z,83.39
2018-04-28T00:14:30.947Z,82.19
2018-04-28T00:16:57.588Z,81.29
2018-04-28T00:19:24.930Z,81.92
2018-04-28T00:21:51.263Z,82.81
2018-04-28T00:24:20.397Z,83.38
2018-04-28T00:26:48.654Z,84.15
2018-04-28T00:29:15.352Z,83.80
2018-04-28T00:31:57.414Z,82.39
2018-04-28T00:34:25.579Z,81.11
2018-04-28T00:37:01.868Z,81.85
2018-04-28T00:39:28.249Z,82.69
2018-04-28T00:41:55.401Z,84.33
2018-04-28T00:44:21.832Z,85.54
2018-04-28T00:46:55.117Z,85.39
2018-04-28T00:49:22.437Z,85.39
2018-04-28T00:51:48.914Z,84.89
2018-04-28T00:54:16.197Z,83.64
2018-04-28T00:56:56.594Z,83.69
2018-04-28T00:59:22.916Z,83.36
2018-04-28T01:01:51.146Z,82.73
2018-04-28T01:04:19.241Z,83.72
2018-04-28T01:06:45.914Z,84.23
2018-04-28T01:09:13.078Z,84.47
2018-04-28T01:11:39.394Z,83.71
2018-04-28T01:14:10.442Z,83.49
2018-04-28T01:16:40.414Z,83.45
2018-04-28T01:22:02.103Z,82.37
2018-04-28T01:24:34.579Z,81.96
2018-04-28T01:27:10.093Z,83.13
2018-04-28T01:32:34.018Z,83.06
2018-04-28T01:35:07.557Z,83.23
2018-04-28T01:37:44.426Z,83.52
2018-04-28T01:40:11.895Z,83.02
2018-04-28T01:45:36.743Z,82.68
2018-04-28T01:48:09.054Z,82.01
2018-04-28T01:50:49.103Z,81.95
2018-04-28T01:53:15.530Z,83.44
2018-04-28T01:55:55.964Z,83.81
2018-04-28T01:58:23.304Z,82.56
2018-04-28T02:00:53.314Z,84.20
2018-04-28T02:03:24.323Z,86.31
2018-04-28T02:09:11.182Z,86.54
2018-04-28T02:11:43.548Z,86.03
2018-04-28T02:17:11.409Z,84.86
2018-04-28T02:19:57.110Z,84.22
2018-04-28T02:25:42.619Z,83.44
2018-04-28T02:31:15.151Z,83.68
2018-04-28T02:33:52.450Z,83.96
2018-04-28T02:36:21.520Z,84.67
2018-04-28T02:38:52.617Z,85.31
2018-04-28T02:41:19.948Z,85.74
2018-04-28T02:43:53.031Z,84.96
2018-04-28T02:46:24.022Z,84.03
2018-04-28T02:49:13.068Z,83.13
2018-04-28T02:51:58.183Z,82.47
2018-04-28T02:54:25.405Z,82.22
2018-04-28T02:57:02.333Z,82.51
2018-04-28T02:59:33.571Z,83.38
2018-04-28T03:04:57.171Z,83.53
2018-04-28T03:10:26.282Z,84.26
2018-04-28T03:12:52.711Z,84.33
2018-04-28T03:15:19.038Z,84.76
2018-04-28T03:17:48.117Z,85.46
2018-04-28T03:20:14.506Z,84.33
2018-04-28T03:22:45.627Z,83.83
2018-04-28T03:25:16.998Z,83.46
2018-04-28T03:27:55.548Z,84.83
2018-04-28T03:30:28.868Z,84.60
2018-04-28T03:32:55.257Z,84.66
2018-04-28T03:35:21.591Z,83.91
2018-04-28T03:37:52.851Z,83.23
2018-04-28T03:40:19.366Z,82.65
2018-04-28T03:42:57.951Z,83.77
2018-04-28T03:45:28.324Z,84.19
2018-04-28T03:51:24.059Z,85.39
2018-04-28T03:53:56.286Z,84.52
2018-04-28T03:56:25.383Z,86.64
2018-04-28T03:59:09.650Z,86.70
2018-04-28T04:01:48.100Z,86.59
2018-04-28T04:04:35.026Z,87.06
2018-04-28T04:07:06.960Z,87.40
2018-04-28T04:09:33.204Z,87.22
2018-04-28T04:12:04.161Z,87.56
2018-04-28T04:14:39.404Z,87.09
2018-04-28T04:20:24.841Z,87.08
2018-04-28T04:26:09.895Z,85.39
2018-04-28T04:28:57.883Z,81.89
2018-04-28T04:31:41.843Z,81.51
2018-04-28T04:34:10.960Z,80.61
2018-04-28T04:36:38.979Z,80.99
2018-04-28T04:39:10.185Z,83.12
2018-04-28T04:41:45.170Z,83.91
2018-04-28T04:44:16.280Z,83.28
2018-04-28T04:46:59.106Z,83.61
2018-04-28T04:49:28.244Z,84.72
2018-04-28T04:55:11.942Z,85.65
2018-04-28T04:57:47.020Z,85.90
2018-04-28T05:03:28.691Z,82.63
2018-04-28T05:06:16.992Z,81.21
2018-04-28T05:09:04.157Z,80.41
2018-04-28T05:11:39.540Z,79.50
2018-04-28T05:14:36.403Z,78.61
2018-04-28T05:17:12.780Z,78.29
2018-04-28T05:20:04.566Z,77.75
2018-04-28T05:22:42.838Z,76.31
2018-04-28T05:25:20.054Z,74.33
2018-04-28T05:27:59.036Z,73.57
2018-04-28T05:30:43.255Z,73.41
2018-04-28T05:36:29.723Z,76.30
2018-04-28T05:38:58.790Z,77.49
2018-04-28T05:44:51.476Z,76.95
2018-04-28T05:47:29.790Z,76.09
2018-04-28T05:53:08.297Z,73.82
2018-04-28T05:55:47.579Z,73.16
2018-04-28T05:58:25.909Z,71.31
2018-04-28T06:00:58.218Z,70.43
2018-04-28T06:03:30.191Z,69.09
2018-04-28T06:09:04.979Z,67.63
2018-04-28T06:11:39.232Z,66.79
2018-04-28T06:14:11.687Z,67.06
2018-04-28T06:16:41.724Z,65.63
2018-04-28T06:22:25.056Z,64.66
2018-04-28T06:24:51.271Z,63.13
2018-04-28T06:27:17.631Z,63.32
2018-04-28T06:29:43.872Z,64.48
2018-04-28T06:32:10.135Z,63.46
2018-04-28T06:34:36.590Z,63.04
2018-04-28T06:37:02.977Z,63.36
2018-04-28T06:39:29.246Z,63.85
2018-04-28T06:41:55.509Z,63.05
2018-04-28T06:44:21.773Z,62.57
2018-04-28T06:46:48.049Z,61.32
2018-04-28T06:49:14.363Z,61.01
2018-04-28T06:51:40.628Z,61.50
2018-04-28T06:54:06.848Z,59.69
2018-04-28T06:56:33.108Z,59.55
2018-04-28T06:58:59.467Z,59.57
2018-04-28T07:01:25.707Z,59.38
2018-04-28T07:03:51.946Z,59.71
2018-04-28T07:06:18.184Z,59.49
2018-04-28T07:08:44.379Z,59.78
2018-04-28T07:11:10.624Z,58.11
2018-04-28T07:13:39.506Z,56.50
2018-04-28T07:16:05.999Z,57.03
2018-04-28T07:18:32.233Z,55.70
2018-04-28T07:20:58.678Z,55.05
2018-04-28T07:23:25.192Z,55.51
2018-04-28T07:25:51.468Z,56.52
2018-04-28T07:28:17.695Z,57.04
2018-04-28T07:30:43.990Z,57.21
2018-04-28T07:33:10.235Z,56.29
2018-04-28T07:35:36.495Z,55.67
2018-04-28T07:38:04.065Z,54.10
2018-04-28T07:40:30.307Z,52.56
2018-04-28T07:42:56.546Z,50.78
2018-04-28T07:45:22.878Z,51.28
2018-04-28T07:47:49.145Z,51.15
2018-04-28T07:50:15.386Z,51.49
2018-04-28T07:52:41.654Z,49.69
2018-04-28T07:55:07.935Z,51.02
2018-04-28T07:57:34.179Z,49.74
2018-04-28T08:00:00.406Z,51.18
2018-04-28T08:02:26.689Z,50.41
2018-04-28T08:04:53.048Z,49.85
2018-04-28T08:07:19.299Z,50.21
2018-04-28T08:09:45.598Z,49.27
2018-04-28T08:12:11.950Z,49.54
2018-04-28T08:14:38.201Z,49.18
2018-04-28T08:17:04.443Z,47.55
2018-04-28T08:19:30.789Z,46.63
2018-04-28T08:21:57.102Z,48.58
2018-04-28T08:24:23.340Z,46.50
2018-04-28T08:26:49.752Z,46.47
2018-04-28T08:29:16.120Z,45.91
2018-04-28T08:31:42.531Z,44.23
2018-04-28T08:34:08.935Z,44.16
2018-04-28T08:36:35.248Z,42.81
2018-04-28T08:39:01.537Z,43.56
2018-04-28T08:41:28.217Z,43.11
2018-04-28T08:43:54.611Z,43.94
2018-04-28T08:46:20.898Z,42.80
2018-04-28T08:48:47.149Z,41.82
2018-04-28T08:51:13.372Z,43.14
2018-04-28T08:53:39.634Z,42.92
2018-04-28T08:56:05.979Z,42.75
2018-04-28T08:58:32.274Z,41.96
2018-04-28T09:00:58.549Z,40.18
2018-04-28T09:03:24.900Z,40.32
2018-04-28T09:05:51.160Z,40.96
2018-04-28T09:08:17.521Z,40.96
2018-04-28T09:10:43.769Z,40.33
2018-04-28T09:13:10.081Z,40.41
2018-04-28T09:15:36.294Z,41.92
2018-04-28T09:18:02.545Z,41.08
2018-04-28T09:20:28.925Z,40.67
2018-04-28T09:22:55.159Z,41.10
2018-04-28T09:25:21.364Z,41.65
2018-04-28T09:27:47.670Z,39.86
2018-04-28T09:30:13.955Z,38.83
2018-04-28T09:32:40.146Z,39.25
2018-04-28T09:35:06.339Z,39.70
2018-04-28T09:37:32.944Z,40.04
2018-04-28T09:39:59.182Z,39.28
2018-04-28T09:42:25.449Z,39.79
2018-04-28T09:44:51.625Z,37.69
2018-04-28T09:47:17.809Z,38.30
2018-04-28T09:49:44.533Z,38.23
2018-04-28T09:52:10.906Z,37.94
2018-04-28T09:54:37.098Z,37.03
2018-04-28T09:57:03.485Z,36.02
2018-04-28T09:59:29.674Z,33.15
2018-04-28T10:01:57.944Z,31.95
2018-04-28T10:04:24.177Z,33.36
2018-04-28T10:06:50.377Z,32.72
2018-04-28T10:09:16.622Z,34.69
2018-04-28T10:11:42.904Z,33.47
2018-04-28T10:14:09.210Z,31.79
2018-04-28T10:16:35.391Z,33.55
2018-04-28T10:19:01.574Z,32.62
2018-04-28T10:21:27.803Z,30.56
2018-04-28T10:23:53.998Z,27.67
2018-04-28T10:26:20.197Z,26.31
2018-04-28T10:28:46.547Z,27.69
2018-04-28T10:31:12.786Z,25.15
2018-04-28T10:33:39.068Z,24.56
2018-04-28T10:36:05.271Z,26.92
2018-04-28T10:38:31.458Z,26.52
2018-04-28T10:40:57.664Z,27.46
2018-04-28T10:43:23.887Z,26.65
2018-04-28T10:45:50.087Z,28.21
2018-04-28T10:48:16.300Z,27.34
2018-04-28T10:50:42.595Z,28.18
2018-04-28T10:53:08.786Z,26.50
2018-04-28T10:55:35.066Z,24.35
2018-04-28T10:58:01.272Z,27.76
2018-04-28T11:00:27.470Z,26.56
2018-04-28T11:02:53.704Z,26.09
2018-04-28T11:05:19.894Z,23.97
2018-04-28T11:07:46.086Z,24.41
2018-04-28T11:10:12.315Z,26.49
2018-04-28T11:12:38.505Z,27.77
2018-04-28T11:15:04.716Z,26.49
2018-04-28T11:17:31.000Z,25.25
2018-04-28T11:19:57.267Z,22.84
2018-04-28T11:22:23.451Z,26.27
2018-04-28T11:24:49.780Z,26.24
2018-04-28T11:27:15.976Z,23.47
2018-04-28T11:29:42.177Z,24.04
2018-04-28T11:32:08.418Z,24.66
2018-04-28T11:34:34.627Z,25.01
2018-04-28T11:37:00.925Z,26.39
2018-04-28T11:39:27.121Z,26.11
2018-04-28T11:41:53.347Z,26.55
2018-04-28T11:44:19.604Z,26.88
2018-04-28T11:46:45.790Z,26.10
2018-04-28T11:49:11.988Z,25.00
2018-04-28T11:51:38.234Z,25.55
2018-04-28T11:54:04.426Z,24.22
2018-04-28T11:56:30.619Z,24.35
2018-04-28T11:58:57.187Z,26.63
2018-04-28T12:01:23.345Z,24.81
2018-04-28T12:03:49.563Z,25.59
2018-04-28T12:06:15.854Z,26.93
2018-04-28T12:08:42.057Z,27.60
2018-04-28T12:11:08.251Z,27.65
2018-04-28T12:13:34.485Z,28.21
2018-04-28T12:16:00.676Z,28.85
2018-04-28T12:18:26.863Z,30.07
2018-04-28T12:20:53.154Z,28.56
2018-04-28T12:23:19.334Z,29.27
2018-04-28T12:25:45.627Z,28.25
2018-04-28T12:28:11.825Z,28.66
2018-04-28T12:30:38.006Z,29.89
2018-04-28T12:33:04.233Z,30.28
2018-04-28T12:35:30.428Z,30.20
2018-04-28T12:37:56.720Z,30.99
2018-04-28T12:40:22.931Z,31.21
2018-04-28T12:42:49.723Z,32.80
2018-04-28T12:45:15.928Z,32.66
2018-04-28T12:47:42.138Z,33.01
2018-04-28T12:50:08.373Z,34.05
2018-04-28T12:52:34.555Z,33.49
2018-04-28T12:55:00.731Z,34.27
2018-04-28T12:57:27.445Z,34.11
2018-04-28T12:59:53.650Z,35.42
2018-04-28T13:02:19.891Z,36.15
2018-04-28T13:04:46.094Z,37.11
2018-04-28T13:07:12.378Z,37.95
2018-04-28T13:09:38.564Z,37.70
2018-04-28T13:12:04.744Z,37.45
2018-04-28T13:14:31.095Z,38.27
2018-04-28T13:16:57.344Z,37.77
2018-04-28T13:19:23.570Z,38.00
2018-04-28T13:21:49.751Z,38.55
2018-04-28T13:24:15.990Z,37.93
2018-04-28T13:26:42.242Z,38.23
2018-04-28T13:29:08.454Z,38.44
2018-04-28T13:31:34.658Z,39.04
2018-04-28T13:34:00.974Z,38.13
2018-04-28T13:36:27.166Z,38.11
2018-04-28T13:38:53.353Z,38.28
2018-04-28T13:41:19.655Z,37.89
2018-04-28T13:43:45.853Z,38.03
2018-04-28T13:46:12.096Z,38.79
2018-04-28T13:48:38.281Z,38.46
2018-04-28T13:51:04.575Z,39.25
2018-04-28T13:53:30.767Z,39.18
2018-04-28T13:55:57.065Z,39.75
2018-04-28T13:58:23.242Z,39.21
2018-04-28T14:00:49.454Z,38.12
2018-04-28T14:03:15.648Z,35.85
2018-04-28T14:05:41.870Z,36.46
2018-04-28T14:08:08.057Z,34.79
2018-04-28T14:10:34.240Z,34.31
2018-04-28T14:13:00.801Z,34.19
2018-04-28T14:15:27.043Z,33.49
2018-04-28T14:17:53.324Z,33.15
2018-04-28T14:20:19.655Z,32.51
2018-04-28T14:22:45.848Z,33.59
2018-04-28T14:25:12.075Z,34.15
2018-04-28T14:27:38.355Z,34.31
2018-04-28T14:30:04.716Z,34.65
2018-04-28T14:32:33.906Z,33.90
2018-04-28T14:35:00.151Z,32.69
2018-04-28T14:37:26.371Z,33.07
2018-04-28T14:39:52.557Z,34.17
2018-04-28T14:42:18.934Z,33.64
2018-04-28T14:44:45.145Z,33.47
2018-04-28T14:47:11.346Z,34.17
2018-04-28T14:49:37.687Z,33.89
2018-04-28T14:52:03.996Z,35.43
2018-04-28T14:54:30.181Z,34.42
2018-04-28T14:56:56.439Z,34.23
2018-04-28T14:59:22.644Z,32.91
2018-04-28T15:01:48.867Z,32.57
2018-04-28T15:04:15.147Z,32.88
2018-04-28T15:06:41.326Z,32.94
2018-04-28T15:09:07.514Z,33.18
2018-04-28T15:11:33.729Z,33.85
2018-04-28T15:13:59.936Z,34.07
2018-04-28T15:16:26.130Z,34.83
2018-04-28T15:18:52.450Z,35.29
2018-04-28T15:21:18.695Z,35.85
2018-04-28T15:23:44.877Z,36.28
2018-04-28T15:26:11.143Z,36.96
2018-04-28T15:28:37.379Z,37.90
2018-04-28T15:31:03.550Z,36.82
2018-04-28T15:33:29.836Z,37.67
2018-04-28T15:35:56.029Z,37.08
2018-04-28T15:38:22.262Z,37.05
2018-04-28T15:40:48.520Z,38.58
2018-04-28T15:43:14.722Z,39.27
2018-04-28T15:45:40.901Z,39.40
2018-04-28T15:48:07.363Z,39.99
2018-04-28T15:50:33.613Z,40.83
2018-04-28T15:52:59.791Z,41.87
2018-04-28T15:55:26.019Z,42.67
2018-04-28T15:57:52.485Z,43.74
2018-04-28T16:00:18.718Z,44.26
2018-04-28T16:02:44.957Z,44.47
2018-04-28T16:05:11.610Z,45.16
2018-04-28T16:07:37.839Z,46.16
2018-04-28T16:10:04.651Z,46.47
2018-04-28T16:12:34.132Z,46.47
2018-04-28T16:15:02.130Z,47.78
2018-04-28T16:17:29.287Z,47.52
2018-04-28T16:19:55.472Z,47.58
2018-04-28T16:22:21.709Z,47.95
2018-04-28T16:24:47.915Z,48.97
2018-04-28T16:27:14.186Z,47.47
2018-04-28T16:29:40.392Z,47.16
2018-04-28T16:32:06.826Z,48.53
2018-04-28T16:34:33.043Z,49.25
2018-04-28T16:36:59.655Z,49.17
2018-04-28T16:39:26.828Z,49.50
2018-04-28T16:41:53.224Z,49.83
2018-04-28T16:44:19.478Z,50.18
2018-04-28T16:46:45.739Z,50.96
2018-04-28T16:49:12.977Z,49.83
2018-04-28T16:51:39.431Z,48.86
2018-04-28T16:54:06.001Z,49.72
2018-04-28T16:56:32.368Z,50.37
2018-04-28T16:58:58.590Z,51.75
2018-04-28T17:01:24.870Z,52.77
2018-04-28T17:03:51.046Z,52.31
2018-04-28T17:06:17.245Z,51.59
2018-04-28T17:08:43.470Z,53.11
2018-04-28T17:11:09.655Z,54.07
2018-04-28T17:13:35.943Z,54.49
2018-04-28T17:16:02.232Z,55.61
2018-04-28T17:18:28.440Z,56.45
2018-04-28T17:20:54.664Z,56.55
2018-04-28T17:23:20.940Z,57.09
2018-04-28T17:25:47.126Z,57.42
2018-04-28T17:28:13.345Z,57.74
2018-04-28T17:30:39.586Z,57.75
2018-04-28T17:33:05.790Z,58.44
2018-04-28T17:35:31.968Z,58.48
2018-04-28T17:37:58.197Z,60.11
2018-04-28T17:40:27.587Z,59.95
2018-04-28T17:42:53.878Z,59.82
2018-04-28T17:45:20.352Z,60.73
2018-04-28T17:47:46.542Z,61.34
2018-04-28T17:50:12.827Z,60.75
2018-04-28T17:52:39.024Z,61.67
2018-04-28T17:55:05.896Z,62.03
2018-04-28T17:57:32.216Z,62.96
2018-04-28T17:59:58.419Z,63.56
2018-04-28T18:02:24.761Z,63.56
2018-04-28T18:04:51.010Z,63.15
2018-04-28T18:07:17.400Z,62.93
2018-04-28T18:09:43.771Z,62.46
2018-04-28T18:12:09.948Z,61.66
2018-04-28T18:14:36.190Z,62.65
2018-04-28T18:17:02.473Z,61.20
2018-04-28T18:19:28.658Z,62.81
2018-04-28T18:21:54.833Z,63.02
2018-04-28T18:24:21.144Z,62.59
2018-04-28T18:26:47.515Z,61.51
2018-04-28T18:29:13.709Z,62.73
2018-04-28T18:34:38.764Z,63.06
2018-04-28T18:37:05.458Z,62.46
2018-04-28T18:39:31.743Z,63.72
2018-04-28T18:41:58.097Z,63.73
2018-04-28T18:44:24.859Z,64.59
2018-04-28T18:46:51.169Z,66.15
2018-04-28T18:49:17.433Z,67.21
2018-04-28T18:51:43.835Z,68.41
2018-04-28T18:54:10.113Z,67.71
2018-04-28T18:56:37.371Z,66.04
2018-04-28T18:59:03.682Z,64.80
2018-04-28T19:01:30.236Z,63.95
2018-04-28T19:03:56.567Z,65.02
2018-04-28T19:06:23.317Z,65.59
2018-04-28T19:08:49.692Z,65.57
2018-04-28T19:11:16.047Z,65.92
2018-04-28T19:13:42.743Z,65.13
2018-04-28T19:16:09.034Z,65.38
2018-04-28T19:18:35.481Z,65.88
2018-04-28T19:21:01.778Z,65.73
2018-04-28T19:23:28.168Z,65.52
2018-04-28T19:25:54.514Z,65.59
2018-04-28T19:28:20.967Z,66.00
2018-04-28T19:30:47.774Z,65.54
2018-04-28T19:33:14.088Z,64.31
2018-04-28T19:35:40.646Z,64.11
2018-04-28T19:38:07.341Z,64.43
2018-04-28T19:40:33.676Z,64.10
2018-04-28T19:42:59.995Z,64.48
2018-04-28T19:45:26.339Z,65.46
2018-04-28T19:47:52.745Z,65.42
2018-04-28T19:50:19.674Z,65.32
2018-04-28T19:52:46.172Z,64.71
2018-04-28T19:55:12.455Z,64.25
2018-04-28T19:57:38.777Z,64.34
2018-04-28T20:00:05.191Z,64.83
2018-04-28T20:02:31.638Z,66.01
2018-04-28T20:04:58.024Z,66.59
2018-04-28T20:07:24.332Z,66.32
2018-04-28T20:09:50.724Z,66.92
2018-04-28T20:12:17.027Z,67.26
2018-04-28T20:14:43.306Z,67.70
2018-04-28T20:17:09.635Z,67.46
2018-04-28T20:19:35.923Z,67.34
2018-04-28T20:22:14.426Z,67.02
2018-04-28T20:24:52.797Z,68.26
2018-04-28T20:27:19.599Z,68.81
2018-04-28T20:29:45.868Z,69.11
2018-04-28T20:32:12.138Z,68.83
2018-04-28T20:34:38.453Z,68.66
2018-04-28T20:37:04.761Z,68.92
2018-04-28T20:39:31.030Z,69.36
2018-04-28T20:41:57.302Z,69.10
2018-04-28T20:44:23.680Z,69.10
2018-04-28T20:46:50.022Z,69.29
2018-04-28T20:49:16.334Z,69.36
2018-04-28T20:51:42.597Z,70.26
2018-04-28T20:54:08.915Z,70.55
2018-04-28T20:56:35.588Z,70.45
2018-04-28T20:59:01.866Z,70.33
2018-04-28T21:01:28.290Z,70.09
2018-04-28T21:03:54.590Z,70.29
2018-04-28T21:06:20.865Z,70.16
2018-04-28T21:08:47.182Z,70.05
2018-04-28T21:11:13.545Z,70.49
2018-04-28T21:13:39.834Z,71.13
2018-04-28T21:16:06.111Z,70.70
2018-04-28T21:18:32.443Z,70.65
2018-04-28T21:20:59.083Z,70.81
2018-04-28T21:23:25.359Z,70.86
2018-04-28T21:25:51.686Z,71.75
2018-04-28T21:28:17.967Z,71.44
2018-04-28T21:30:44.271Z,71.47
2018-04-28T21:33:10.853Z,71.27
2018-04-28T21:35:37.124Z,71.80
2018-04-28T21:38:03.387Z,71.22
2018-04-28T21:40:29.744Z,71.21
2018-04-28T21:42:56.008Z,71.19
2018-04-28T21:45:22.280Z,70.94
2018-04-28T21:47:48.672Z,71.08
2018-04-28T21:50:15.030Z,71.08
2018-04-28T21:52:41.283Z,71.56
2018-04-28T21:55:07.549Z,72.16
2018-04-28T21:57:34.727Z,72.99
2018-04-28T22:00:01.139Z,74.05
2018-04-28T22:02:27.442Z,74.27
2018-04-28T22:04:53.781Z,73.90
2018-04-28T22:07:20.059Z,73.40
2018-04-28T22:09:46.308Z,73.14
2018-04-28T22:12:12.686Z,73.28
2018-04-28T22:14:38.966Z,73.76
2018-04-28T22:17:05.726Z,73.45
2018-04-28T22:19:32.019Z,73.59
2018-04-28T22:21:58.316Z,73.89
2018-04-28T22:24:24.646Z,74.37
2018-04-28T22:26:50.917Z,74.49
2018-04-28T22:29:17.209Z,74.23
2018-04-28T22:31:43.581Z,74.58
2018-04-28T22:34:09.877Z,75.10
2018-04-28T22:36:36.151Z,74.68
2018-04-28T22:39:02.583Z,74.78
2018-04-28T22:41:28.878Z,74.84
2018-04-28T22:43:55.213Z,74.84
2018-04-28T22:46:21.466Z,75.29
2018-04-28T22:48:47.838Z,75.24
2018-04-28T22:51:14.110Z,75.47
2018-04-28T22:53:40.475Z,76.90
2018-04-28T22:56:06.960Z,76.89
2018-04-28T22:58:33.280Z,76.28
2018-04-28T23:00:59.602Z,76.46
2018-04-28T23:03:25.887Z,76.63
2018-04-28T23:05:52.270Z,76.55
2018-04-28T23:08:18.621Z,76.81
2018-04-28T23:10:48.290Z,76.67
2018-04-28T23:13:14.580Z,76.87
2018-04-28T23:15:40.868Z,77.07
2018-04-28T23:18:07.315Z,77.69
2018-04-28T23:20:33.624Z,78.66
2018-04-28T23:22:59.879Z,77.36
2018-04-28T23:25:26.188Z,77.22
2018-04-28T23:27:52.494Z,78.09
2018-04-28T23:30:18.784Z,77.92
2018-04-28T23:32:45.181Z,77.79
2018-04-28T23:35:11.483Z,77.85
2018-04-28T23:37:37.757Z,77.60
2018-04-28T23:40:04.275Z,77.40
2018-04-28T23:42:30.572Z,76.94
2018-04-28T23:44:56.911Z,77.02
2018-04-28T23:47:23.167Z,77.35
2018-04-28T23:49:49.497Z,76.75
2018-04-28T23:52:15.819Z,77.55
2018-04-28T23:54:42.217Z,78.49
2018-04-28T23:57:08.518Z,78.57
2018-04-28T23:59:34.792Z,78.66
